createdAt,value
2022-12-08T00:00:31.888Z,81.46
2022-12-08T00:01:31.930Z,81.57
2022-12-08T00:02:31.947Z,81.29
2022-12-08T00:03:31.928Z,80.59
2022-12-08T00:04:31.807Z,80.64
2022-12-08T00:05:31.847Z,81.17
2022-12-08T00:06:31.797Z,79.98
2022-12-08T00:07:31.869Z,81.04
2022-12-08T00:08:31.798Z,80.19
2022-12-08T00:09:37.966Z,80.18
2022-12-08T00:10:49.674Z,80.50
2022-12-08T00:11:32.735Z,81.36
2022-12-08T00:12:31.797Z,81.63
2022-12-08T00:13:31.686Z,82.44
2022-12-08T00:14:31.707Z,82.50
2022-12-08T00:15:31.666Z,82.40
2022-12-08T00:16:31.766Z,82.16
2022-12-08T00:17:31.667Z,82.34
2022-12-08T00:18:31.749Z,82.38
2022-12-08T00:19:31.615Z,82.48
2022-12-08T00:20:31.656Z,82.59
2022-12-08T00:21:31.590Z,81.19
2022-12-08T00:22:31.667Z,81.64
2022-12-08T00:23:31.605Z,80.54
2022-12-08T00:24:31.576Z,81.19
2022-12-08T00:25:31.539Z,81.88
2022-12-08T00:26:31.594Z,80.19
2022-12-08T00:27:31.515Z,81.25
2022-12-08T00:28:31.605Z,78.50
2022-12-08T00:29:31.514Z,79.68
2022-12-08T00:30:31.524Z,81.01
2022-12-08T00:31:31.527Z,81.54
2022-12-08T00:32:31.545Z,81.61
2022-12-08T00:33:31.435Z,81.95
2022-12-08T00:34:31.463Z,82.27
2022-12-08T00:35:31.424Z,82.44
2022-12-08T00:36:31.468Z,82.62
2022-12-08T00:37:31.382Z,82.48
2022-12-08T00:38:31.473Z,82.27
2022-12-08T00:39:31.358Z,82.60
2022-12-08T00:40:32.415Z,82.56
2022-12-08T00:41:31.351Z,81.87
2022-12-08T00:42:31.405Z,82.03
2022-12-08T00:43:31.302Z,82.40
2022-12-08T00:44:31.333Z,82.65
2022-12-08T00:45:31.324Z,82.85
2022-12-08T00:46:31.405Z,82.96
2022-12-08T00:47:31.270Z,83.00
2022-12-08T00:48:31.344Z,83.22
2022-12-08T00:49:31.221Z,83.34
2022-12-08T00:50:31.262Z,83.30
2022-12-08T00:51:31.202Z,83.47
2022-12-08T00:52:31.271Z,83.41
2022-12-08T00:53:31.194Z,83.46
2022-12-08T00:54:31.184Z,83.22
2022-12-08T00:55:31.151Z,82.99
2022-12-08T00:56:31.193Z,82.69
2022-12-08T00:57:31.120Z,82.81
2022-12-08T00:58:31.212Z,82.93
2022-12-08T00:59:31.113Z,83.08
2022-12-08T01:00:31.129Z,83.06
2022-12-08T01:01:31.103Z,83.17
2022-12-08T01:02:31.242Z,83.25
2022-12-08T01:03:31.109Z,83.08
2022-12-08T01:04:31.050Z,83.25
2022-12-08T01:05:31.040Z,83.41
2022-12-08T01:06:31.068Z,83.39
2022-12-08T01:07:30.991Z,83.35
2022-12-08T01:08:31.091Z,83.23
2022-12-08T01:09:30.969Z,83.04
2022-12-08T01:10:30.990Z,82.42
2022-12-08T01:11:30.969Z,80.87
2022-12-08T01:12:31.000Z,78.96
2022-12-08T01:13:30.948Z,78.81
2022-12-08T01:14:33.009Z,79.31
2022-12-08T01:15:30.892Z,80.18
2022-12-08T01:16:31.114Z,81.02
2022-12-08T01:17:30.928Z,81.39
2022-12-08T01:18:30.946Z,81.32
2022-12-08T01:19:30.844Z,81.14
2022-12-08T01:20:30.858Z,81.63
2022-12-08T01:21:30.823Z,81.79
2022-12-08T01:22:30.870Z,81.68
2022-12-08T01:23:30.807Z,81.86
2022-12-08T01:24:30.887Z,81.79
2022-12-08T01:25:30.757Z,81.65
2022-12-08T01:26:30.797Z,81.97
2022-12-08T01:27:30.733Z,82.17
2022-12-08T01:28:30.816Z,82.13
2022-12-08T01:29:30.727Z,82.75
2022-12-08T01:30:30.773Z,83.06
2022-12-08T01:31:30.676Z,83.26
2022-12-08T01:32:30.739Z,83.53
2022-12-08T01:33:30.656Z,83.30
2022-12-08T01:34:30.757Z,83.20
2022-12-08T01:35:30.646Z,83.20
2022-12-08T01:36:30.666Z,82.54
2022-12-08T01:37:30.603Z,82.32
2022-12-08T01:38:30.686Z,82.26
2022-12-08T01:39:30.578Z,82.30
2022-12-08T01:40:30.595Z,82.27
2022-12-08T01:41:30.573Z,82.39
2022-12-08T01:42:30.607Z,82.28
2022-12-08T01:43:30.527Z,82.35
2022-12-08T01:44:30.626Z,81.79
2022-12-08T01:45:30.496Z,81.97
2022-12-08T01:46:30.558Z,82.59
2022-12-08T01:47:30.541Z,82.73
2022-12-08T01:48:30.554Z,82.69
2022-12-08T01:49:30.444Z,82.58
2022-12-08T01:50:30.455Z,82.37
2022-12-08T01:51:30.424Z,82.36
2022-12-08T01:52:30.480Z,82.43
2022-12-08T01:53:30.404Z,82.30
2022-12-08T01:54:30.493Z,82.02
2022-12-08T01:55:30.363Z,81.83
2022-12-08T01:56:30.393Z,81.64
2022-12-08T01:57:30.345Z,81.46
2022-12-08T01:58:30.416Z,81.08
2022-12-08T01:59:30.342Z,80.74
2022-12-08T02:00:30.325Z,80.88
2022-12-08T02:01:30.339Z,81.28
2022-12-08T02:02:30.407Z,81.24
2022-12-08T02:03:30.275Z,81.52
2022-12-08T02:04:30.358Z,81.27
2022-12-08T02:05:30.273Z,80.76
2022-12-08T02:06:30.262Z,81.03
2022-12-08T02:07:30.222Z,80.83
2022-12-08T02:08:30.316Z,80.58
2022-12-08T02:09:30.192Z,80.71
2022-12-08T02:10:30.191Z,81.00
2022-12-08T02:11:30.181Z,81.38
2022-12-08T02:12:30.212Z,82.06
2022-12-08T02:13:30.146Z,81.87
2022-12-08T02:14:30.222Z,80.85
2022-12-08T02:15:30.173Z,81.00
2022-12-08T02:16:30.202Z,81.35
2022-12-08T02:17:30.102Z,81.55
2022-12-08T02:18:30.161Z,81.60
2022-12-08T02:19:31.414Z,82.04
2022-12-08T02:20:30.062Z,81.70
2022-12-08T02:21:30.030Z,81.13
2022-12-08T02:22:30.069Z,80.95
2022-12-08T02:23:30.030Z,80.78
2022-12-08T02:24:30.091Z,80.57
2022-12-08T02:25:29.981Z,81.12
2022-12-08T02:26:30.001Z,81.72
2022-12-08T02:27:29.952Z,81.71
2022-12-08T02:28:30.022Z,81.44
2022-12-08T02:29:29.950Z,80.36
2022-12-08T02:30:30.967Z,79.67
2022-12-08T02:31:29.976Z,80.82
2022-12-08T02:32:29.941Z,81.55
2022-12-08T02:33:29.880Z,81.85
2022-12-08T02:34:29.950Z,81.88
2022-12-08T02:35:29.869Z,81.60
2022-12-08T02:36:29.869Z,81.51
2022-12-08T02:37:29.819Z,81.25
2022-12-08T02:38:29.882Z,81.02
2022-12-08T02:39:29.802Z,80.56
2022-12-08T02:40:29.893Z,80.63
2022-12-08T02:41:29.808Z,80.85
2022-12-08T02:42:29.813Z,81.12
2022-12-08T02:43:29.740Z,80.62
2022-12-08T02:44:29.818Z,80.07
2022-12-08T02:45:29.731Z,80.07
2022-12-08T02:46:29.763Z,79.46
2022-12-08T02:47:29.708Z,79.18
2022-12-08T02:48:29.750Z,79.55
2022-12-08T02:49:29.668Z,79.93
2022-12-08T02:50:29.757Z,79.96
2022-12-08T02:51:29.645Z,80.11
2022-12-08T02:52:29.679Z,80.11
2022-12-08T02:53:29.646Z,80.24
2022-12-08T02:54:29.691Z,80.43
2022-12-08T02:55:29.597Z,80.61
2022-12-08T02:56:29.606Z,80.87
2022-12-08T02:57:29.567Z,80.94
2022-12-08T02:58:29.621Z,80.81
2022-12-08T02:59:29.574Z,80.46
2022-12-08T03:00:29.636Z,80.00
2022-12-08T03:01:29.640Z,80.57
2022-12-08T03:02:29.573Z,80.74
2022-12-08T03:03:29.486Z,80.72
2022-12-08T03:04:29.557Z,80.61
2022-12-08T03:05:29.476Z,80.58
2022-12-08T03:06:29.467Z,80.70
2022-12-08T03:07:29.436Z,80.83
2022-12-08T03:08:29.579Z,80.93
2022-12-08T03:09:29.406Z,80.61
2022-12-08T03:10:29.498Z,80.71
2022-12-08T03:11:29.412Z,80.58
2022-12-08T03:12:29.405Z,80.56
2022-12-08T03:13:29.354Z,80.58
2022-12-08T03:14:29.425Z,80.63
2022-12-08T03:15:29.367Z,80.81
2022-12-08T03:16:31.482Z,80.74
2022-12-08T03:17:29.324Z,80.81
2022-12-08T03:18:29.344Z,80.74
2022-12-08T03:19:29.275Z,80.97
2022-12-08T03:20:29.366Z,81.30
2022-12-08T03:21:29.253Z,81.25
2022-12-08T03:22:29.277Z,81.12
2022-12-08T03:23:29.244Z,81.19
2022-12-08T03:24:29.291Z,81.27
2022-12-08T03:25:29.203Z,80.60
2022-12-08T03:26:29.204Z,80.67
2022-12-08T03:27:29.174Z,81.01
2022-12-08T03:28:29.213Z,81.77
2022-12-08T03:29:29.170Z,82.29
2022-12-08T03:30:29.234Z,82.36
2022-12-08T03:31:29.156Z,82.03
2022-12-08T03:32:29.152Z,81.84
2022-12-08T03:33:29.107Z,81.91
2022-12-08T03:34:29.153Z,82.14
2022-12-08T03:35:29.090Z,82.23
2022-12-08T03:36:29.172Z,82.32
2022-12-08T03:37:29.045Z,82.30
2022-12-08T03:38:29.089Z,82.27
2022-12-08T03:39:29.021Z,81.89
2022-12-08T03:40:29.111Z,81.60
2022-12-08T03:41:29.012Z,81.64
2022-12-08T03:42:29.013Z,81.62
2022-12-08T03:43:28.972Z,81.36
2022-12-08T03:44:29.030Z,81.25
2022-12-08T03:45:28.943Z,81.57
2022-12-08T03:46:58.479Z,81.96
2022-12-08T03:47:58.421Z,81.98
2022-12-08T03:48:58.439Z,82.42
2022-12-08T03:49:58.399Z,82.90
2022-12-08T03:50:58.458Z,83.09
2022-12-08T03:51:58.388Z,83.02
2022-12-08T03:52:58.469Z,82.98
2022-12-08T03:53:58.348Z,82.89
2022-12-08T03:54:58.379Z,82.43
2022-12-08T03:55:58.319Z,82.10
2022-12-08T03:56:58.392Z,81.92
2022-12-08T03:57:58.308Z,82.40
2022-12-08T03:58:58.311Z,82.77
2022-12-08T03:59:58.270Z,83.01
2022-12-08T04:00:58.317Z,83.05
2022-12-08T04:01:58.280Z,83.05
2022-12-08T04:02:58.395Z,83.19
2022-12-08T04:03:58.256Z,82.87
2022-12-08T04:04:58.248Z,82.73
2022-12-08T04:05:58.188Z,82.66
2022-12-08T04:06:58.265Z,82.77
2022-12-08T04:07:58.180Z,82.94
2022-12-08T04:08:58.177Z,82.85
2022-12-08T04:09:58.159Z,82.91
2022-12-08T04:10:58.196Z,82.74
2022-12-08T04:11:58.106Z,82.54
2022-12-08T04:12:58.197Z,82.59
2022-12-08T04:13:58.085Z,82.57
2022-12-08T04:14:58.119Z,82.66
2022-12-08T04:15:58.097Z,82.69
2022-12-08T04:16:58.137Z,82.66
2022-12-08T04:17:58.038Z,82.63
2022-12-08T04:18:58.045Z,82.64
2022-12-08T04:19:58.006Z,82.85
2022-12-08T04:20:58.056Z,82.90
2022-12-08T04:21:57.996Z,82.93
2022-12-08T04:22:58.076Z,82.97
2022-12-08T04:24:01.208Z,82.64
2022-12-08T04:24:57.945Z,82.76
2022-12-08T04:25:57.993Z,82.54
2022-12-08T04:26:57.915Z,82.85
2022-12-08T04:27:58.996Z,82.93
2022-12-08T04:28:57.884Z,82.89
2022-12-08T04:29:57.914Z,83.07
2022-12-08T04:30:57.905Z,83.15
2022-12-08T04:31:58.061Z,83.00
2022-12-08T04:32:57.835Z,82.83
2022-12-08T04:33:57.891Z,82.97
2022-12-08T04:34:57.813Z,82.90
2022-12-08T04:35:57.854Z,82.62
2022-12-08T04:36:57.791Z,82.46
2022-12-08T04:37:57.880Z,82.58
2022-12-08T04:38:57.753Z,82.72
2022-12-08T04:39:57.834Z,82.90
2022-12-08T04:40:57.742Z,83.21
2022-12-08T04:41:57.806Z,82.60
2022-12-08T04:42:57.709Z,82.08
2022-12-08T04:43:57.723Z,82.26
2022-12-08T04:44:57.685Z,82.74
2022-12-08T04:45:57.764Z,82.74
2022-12-08T04:46:57.697Z,82.87
2022-12-08T04:47:57.741Z,82.56
2022-12-08T04:48:57.629Z,82.44
2022-12-08T04:49:57.653Z,82.76
2022-12-08T04:50:57.603Z,82.77
2022-12-08T04:51:57.722Z,82.62
2022-12-08T04:52:57.573Z,82.46
2022-12-08T04:53:57.579Z,82.39
2022-12-08T04:54:57.550Z,82.52
2022-12-08T04:55:57.591Z,82.63
2022-12-08T04:56:57.522Z,82.72
2022-12-08T04:57:57.565Z,82.72
2022-12-08T04:58:57.501Z,82.57
2022-12-08T04:59:57.520Z,82.46
2022-12-08T05:00:57.509Z,82.56
2022-12-08T05:01:57.701Z,82.51
2022-12-08T05:02:57.500Z,82.73
2022-12-08T05:03:57.503Z,82.67
2022-12-08T05:04:57.420Z,82.72
2022-12-08T05:05:58.481Z,82.60
2022-12-08T05:06:57.402Z,82.63
2022-12-08T05:07:57.520Z,82.90
2022-12-08T05:08:57.368Z,82.45
2022-12-08T05:09:57.438Z,82.39
2022-12-08T05:10:57.349Z,82.64
2022-12-08T05:11:57.405Z,82.89
2022-12-08T05:12:57.318Z,83.07
2022-12-08T05:13:57.417Z,82.79
2022-12-08T05:14:57.297Z,82.75
2022-12-08T05:15:57.447Z,82.98
2022-12-08T05:16:57.278Z,83.27
2022-12-08T05:17:57.339Z,83.57
2022-12-08T05:18:57.238Z,83.50
2022-12-08T05:19:57.254Z,83.40
2022-12-08T05:20:57.217Z,83.48
2022-12-08T05:21:57.318Z,83.24
2022-12-08T05:22:57.186Z,82.98
2022-12-08T05:23:57.280Z,82.99
2022-12-08T05:24:57.159Z,82.77
2022-12-08T05:25:57.197Z,82.81
2022-12-08T05:26:57.137Z,82.45
2022-12-08T05:28:17.722Z,82.38
2022-12-08T05:28:58.137Z,82.92
2022-12-08T05:29:57.103Z,82.96
2022-12-08T05:30:57.136Z,82.97
2022-12-08T05:31:57.143Z,83.23
2022-12-08T05:32:57.137Z,83.38
2022-12-08T05:34:02.444Z,83.45
2022-12-08T05:34:58.056Z,83.93
2022-12-08T05:35:57.064Z,84.04
2022-12-08T05:36:57.017Z,84.07
2022-12-08T05:37:57.076Z,84.10
2022-12-08T05:38:56.987Z,84.30
2022-12-08T05:39:57.037Z,84.13
2022-12-08T05:40:56.965Z,83.89
2022-12-08T05:41:57.004Z,84.10
2022-12-08T05:42:56.925Z,84.29
2022-12-08T05:43:57.025Z,84.36
2022-12-08T05:44:56.915Z,84.24
2022-12-08T05:45:57.042Z,84.16
2022-12-08T05:46:56.876Z,84.10
2022-12-08T05:47:56.950Z,83.89
2022-12-08T05:48:56.852Z,83.98
2022-12-08T05:49:56.855Z,83.75
2022-12-08T05:50:56.823Z,83.89
2022-12-08T05:51:56.921Z,83.93
2022-12-08T05:52:56.793Z,84.19
2022-12-08T05:53:56.891Z,84.14
2022-12-08T05:54:56.772Z,84.00
2022-12-08T05:55:56.805Z,84.09
2022-12-08T05:56:56.742Z,84.24
2022-12-08T05:57:56.862Z,84.28
2022-12-08T05:58:56.723Z,84.27
2022-12-08T05:59:56.820Z,84.58
2022-12-08T06:00:56.716Z,84.64
2022-12-08T06:01:56.809Z,84.67
2022-12-08T06:02:56.881Z,84.98
2022-12-08T06:03:56.701Z,84.71
2022-12-08T06:04:56.652Z,84.66
2022-12-08T06:05:56.666Z,84.71
2022-12-08T06:06:56.621Z,84.93
2022-12-08T06:07:56.756Z,85.07
2022-12-08T06:08:56.590Z,85.13
2022-12-08T06:09:56.641Z,85.29
2022-12-08T06:10:56.562Z,85.39
2022-12-08T06:11:56.602Z,85.22
2022-12-08T06:12:56.530Z,85.16
2022-12-08T06:13:56.619Z,85.09
2022-12-08T06:14:56.510Z,85.06
2022-12-08T06:15:56.579Z,84.99
2022-12-08T06:16:56.509Z,84.79
2022-12-08T06:17:57.570Z,84.62
2022-12-08T06:18:56.460Z,84.79
2022-12-08T06:19:56.559Z,84.65
2022-12-08T06:20:56.437Z,84.28
2022-12-08T06:21:56.519Z,84.32
2022-12-08T06:22:56.409Z,84.41
2022-12-08T06:23:56.480Z,84.31
2022-12-08T06:24:56.381Z,84.00
2022-12-08T06:25:56.406Z,83.85
2022-12-08T06:26:56.366Z,83.63
2022-12-08T06:27:56.467Z,83.50
2022-12-08T06:28:56.329Z,83.42
2022-12-08T06:29:56.428Z,83.18
2022-12-08T06:30:56.300Z,82.95
2022-12-08T06:31:56.440Z,82.78
2022-12-08T06:32:56.281Z,82.76
2022-12-08T06:33:56.300Z,82.90
2022-12-08T06:34:56.260Z,83.06
2022-12-08T06:35:56.270Z,83.02
2022-12-08T06:36:56.228Z,83.24
2022-12-08T06:37:56.281Z,83.32
2022-12-08T06:38:56.206Z,83.60
2022-12-08T06:39:56.238Z,83.26
2022-12-08T06:40:56.188Z,83.14
2022-12-08T06:41:56.199Z,83.37
2022-12-08T06:42:56.147Z,83.54
2022-12-08T06:43:56.220Z,83.45
2022-12-08T06:44:56.129Z,83.22
2022-12-08T06:45:56.206Z,83.15
2022-12-08T06:46:56.099Z,83.15
2022-12-08T06:47:56.145Z,82.90
2022-12-08T06:48:56.077Z,82.89
2022-12-08T06:49:56.156Z,83.02
2022-12-08T06:50:56.158Z,82.94
2022-12-08T06:51:56.126Z,83.11
2022-12-08T06:53:04.817Z,82.97
2022-12-08T06:53:57.024Z,83.01
2022-12-08T06:54:56.096Z,83.08
2022-12-08T06:55:59.904Z,83.26
2022-12-08T06:56:55.976Z,83.62
2022-12-08T06:57:57.178Z,83.51
2022-12-08T06:58:55.946Z,83.37
2022-12-08T06:59:56.027Z,83.07
2022-12-08T07:00:56.011Z,83.06
2022-12-08T07:01:55.971Z,82.94
2022-12-08T07:02:55.922Z,82.72
2022-12-08T07:03:56.926Z,82.69
2022-12-08T07:04:55.865Z,82.43
2022-12-08T07:06:00.256Z,82.79
2022-12-08T07:06:56.836Z,82.94
2022-12-08T07:07:55.969Z,82.64
2022-12-08T07:08:55.815Z,82.68
2022-12-08T07:09:55.848Z,82.72
2022-12-08T07:10:55.789Z,82.53
2022-12-08T07:11:55.822Z,82.32
2022-12-08T07:12:55.757Z,82.41
2022-12-08T07:13:55.824Z,82.63
2022-12-08T07:14:55.735Z,82.53
2022-12-08T07:15:55.888Z,82.11
2022-12-08T07:16:55.772Z,82.14
2022-12-08T07:17:59.783Z,82.03
2022-12-08T07:18:55.686Z,82.18
2022-12-08T07:19:55.756Z,82.11
2022-12-08T07:20:55.662Z,82.30
2022-12-08T07:21:55.724Z,82.75
2022-12-08T07:22:55.634Z,82.68
2022-12-08T07:23:57.939Z,82.53
2022-12-08T07:24:55.604Z,82.58
2022-12-08T07:25:55.703Z,82.58
2022-12-08T07:26:55.582Z,82.69
2022-12-08T07:27:55.666Z,82.59
2022-12-08T07:28:55.553Z,82.50
2022-12-08T07:29:55.625Z,82.38
2022-12-08T07:30:55.586Z,82.33
2022-12-08T07:31:55.540Z,82.21
2022-12-08T07:32:55.512Z,82.25
2022-12-08T07:33:55.609Z,82.47
2022-12-08T07:34:55.473Z,82.55
2022-12-08T07:35:55.572Z,82.35
2022-12-08T07:36:55.452Z,82.54
2022-12-08T07:37:55.483Z,82.61
2022-12-08T07:38:55.425Z,82.73
2022-12-08T07:39:55.550Z,82.70
2022-12-08T07:40:55.414Z,82.62
2022-12-08T07:41:55.435Z,82.76
2022-12-08T07:42:55.376Z,82.63
2022-12-08T07:43:55.424Z,82.41
2022-12-08T07:44:55.354Z,82.43
2022-12-08T07:45:55.524Z,82.60
2022-12-08T07:46:55.321Z,82.74
2022-12-08T07:47:55.371Z,82.58
2022-12-08T07:48:55.295Z,82.91
2022-12-08T07:49:55.381Z,83.13
2022-12-08T07:50:55.272Z,83.03
2022-12-08T07:51:55.323Z,82.80
2022-12-08T07:52:55.241Z,82.81
2022-12-08T07:53:55.512Z,82.69
2022-12-08T07:54:55.210Z,82.77
2022-12-08T07:55:55.308Z,82.79
2022-12-08T07:56:55.190Z,82.89
2022-12-08T07:57:55.271Z,82.98
2022-12-08T07:58:55.173Z,83.13
2022-12-08T07:59:55.240Z,83.32
2022-12-08T08:00:55.308Z,83.26
2022-12-08T08:02:19.549Z,83.48
2022-12-08T08:02:56.307Z,83.56
2022-12-08T08:03:55.178Z,83.18
2022-12-08T08:04:55.134Z,83.50
2022-12-08T08:05:55.175Z,83.77
2022-12-08T08:06:55.072Z,83.88
2022-12-08T08:07:55.112Z,83.65
2022-12-08T08:08:55.072Z,84.01
2022-12-08T08:09:55.102Z,84.02
2022-12-08T08:10:55.013Z,84.09
2022-12-08T08:12:22.334Z,84.33
2022-12-08T08:12:56.046Z,84.31
2022-12-08T08:13:54.969Z,84.05
2022-12-08T08:14:55.080Z,83.71
2022-12-08T08:15:55.049Z,83.95
2022-12-08T08:16:55.098Z,84.22
2022-12-08T08:17:54.918Z,84.18
2022-12-08T08:18:54.957Z,83.80
2022-12-08T08:19:54.895Z,84.02
2022-12-08T08:20:54.919Z,83.81
2022-12-08T08:21:54.862Z,83.71
2022-12-08T08:22:54.891Z,83.63
2022-12-08T08:23:54.837Z,83.57
2022-12-08T08:24:54.900Z,83.47
2022-12-08T08:25:54.814Z,82.92
2022-12-08T08:26:54.868Z,82.85
2022-12-08T08:27:54.787Z,82.85
2022-12-08T08:28:54.827Z,82.77
2022-12-08T08:29:54.762Z,83.05
2022-12-08T08:30:54.890Z,82.54
2022-12-08T08:31:54.734Z,82.39
2022-12-08T08:32:54.798Z,82.44
2022-12-08T08:33:54.717Z,82.19
2022-12-08T08:34:54.768Z,82.14
2022-12-08T08:35:54.678Z,82.05
2022-12-08T08:36:54.873Z,81.84
2022-12-08T08:37:54.666Z,81.81
2022-12-08T08:38:54.688Z,81.70
2022-12-08T08:39:54.626Z,81.98
2022-12-08T08:40:54.619Z,82.14
2022-12-08T08:41:54.606Z,81.76
2022-12-08T08:42:54.596Z,81.37
2022-12-08T08:43:54.579Z,81.41
2022-12-08T08:44:54.611Z,81.32
2022-12-08T08:45:54.626Z,81.51
2022-12-08T08:46:54.588Z,81.36
2022-12-08T08:47:54.525Z,81.30
2022-12-08T08:48:54.515Z,81.04
2022-12-08T08:49:54.505Z,81.06
2022-12-08T08:50:54.524Z,81.10
2022-12-08T08:51:54.474Z,80.91
2022-12-08T08:52:54.465Z,81.22
2022-12-08T08:53:54.450Z,81.43
2022-12-08T08:54:54.436Z,80.97
2022-12-08T08:55:54.431Z,81.06
2022-12-08T08:56:54.426Z,81.21
2022-12-08T08:57:54.394Z,80.84
2022-12-08T08:58:54.384Z,80.81
2022-12-08T08:59:54.373Z,80.92
2022-12-08T09:00:54.363Z,80.90
2022-12-08T09:01:54.514Z,80.99
2022-12-08T09:02:54.374Z,80.92
2022-12-08T09:03:54.325Z,81.24
2022-12-08T09:04:54.350Z,80.38
2022-12-08T09:05:54.319Z,80.30
2022-12-08T09:06:54.282Z,80.25
2022-12-08T09:07:54.294Z,80.34
2022-12-08T09:08:54.283Z,80.40
2022-12-08T09:09:58.413Z,80.11
2022-12-08T09:10:55.222Z,80.15
2022-12-08T09:11:54.214Z,80.29
2022-12-08T09:12:54.203Z,80.18
2022-12-08T09:13:54.192Z,79.74
2022-12-08T09:14:54.193Z,79.64
2022-12-08T09:15:54.228Z,79.81
2022-12-08T09:16:54.152Z,79.55
2022-12-08T09:17:54.133Z,79.55
2022-12-08T09:18:54.124Z,79.53
2022-12-08T09:19:54.119Z,79.80
2022-12-08T09:20:54.112Z,79.61
2022-12-08T09:21:54.092Z,79.59
2022-12-08T09:22:54.071Z,79.26
2022-12-08T09:23:54.062Z,79.66
2022-12-08T09:24:54.042Z,79.83
2022-12-08T09:25:54.045Z,79.32
2022-12-08T09:26:54.033Z,79.38
2022-12-08T09:27:54.032Z,79.48
2022-12-08T09:28:54.000Z,79.79
2022-12-08T09:29:53.991Z,79.99
2022-12-08T09:30:54.013Z,79.86
2022-12-08T09:31:54.061Z,79.44
2022-12-08T09:32:53.961Z,79.34
2022-12-08T09:33:53.930Z,79.86
2022-12-08T09:34:53.911Z,79.25
2022-12-08T09:35:53.911Z,79.09
2022-12-08T09:36:53.886Z,78.98
2022-12-08T09:37:53.880Z,79.31
2022-12-08T09:38:53.915Z,79.10
2022-12-08T09:39:53.859Z,79.42
2022-12-08T09:40:53.832Z,79.28
2022-12-08T09:41:53.842Z,78.93
2022-12-08T09:42:53.807Z,79.25
2022-12-08T09:43:53.800Z,79.01
2022-12-08T09:44:53.810Z,78.95
2022-12-08T09:45:53.771Z,79.47
2022-12-08T09:46:53.785Z,79.03
2022-12-08T09:47:53.749Z,79.46
2022-12-08T09:48:53.733Z,78.97
2022-12-08T09:49:53.730Z,79.84
2022-12-08T09:50:53.722Z,79.83
2022-12-08T09:51:53.689Z,79.22
2022-12-08T09:52:53.682Z,78.61
2022-12-08T09:53:53.678Z,78.58
2022-12-08T09:54:53.662Z,78.38
2022-12-08T09:55:53.642Z,78.64
2022-12-08T09:56:53.642Z,78.71
2022-12-08T09:57:56.556Z,78.79
2022-12-08T09:58:53.589Z,79.30
2022-12-08T09:59:53.603Z,79.08
2022-12-08T10:00:53.585Z,78.63
2022-12-08T10:01:53.613Z,78.67
2022-12-08T10:02:53.569Z,78.75
2022-12-08T10:03:53.539Z,78.48
2022-12-08T10:04:53.554Z,78.44
2022-12-08T10:05:53.516Z,78.34
2022-12-08T10:06:53.489Z,77.82
2022-12-08T10:07:53.530Z,78.08
2022-12-08T10:08:53.657Z,78.35
2022-12-08T10:09:53.467Z,78.40
2022-12-08T10:10:53.442Z,78.81
2022-12-08T10:11:53.428Z,78.74
2022-12-08T10:12:53.408Z,78.58
2022-12-08T10:13:53.398Z,78.30
2022-12-08T10:14:53.407Z,77.88
2022-12-08T10:15:53.443Z,77.82
2022-12-08T10:16:53.423Z,77.89
2022-12-08T10:17:53.355Z,77.29
2022-12-08T10:18:53.354Z,77.41
2022-12-08T10:19:53.338Z,77.27
2022-12-08T10:20:53.326Z,77.31
2022-12-08T10:21:53.299Z,77.43
2022-12-08T10:22:53.280Z,77.39
2022-12-08T10:23:53.288Z,77.74
2022-12-08T10:24:53.256Z,77.66
2022-12-08T10:25:53.252Z,77.68
2022-12-08T10:26:53.261Z,77.85
2022-12-08T10:27:53.226Z,77.89
2022-12-08T10:28:53.207Z,77.67
2022-12-08T10:29:53.206Z,77.57
2022-12-08T10:30:53.175Z,77.52
2022-12-08T10:31:53.280Z,77.29
2022-12-08T10:32:53.185Z,77.56
2022-12-08T10:33:53.146Z,77.70
2022-12-08T10:34:56.296Z,77.56
2022-12-08T10:35:53.115Z,77.04
2022-12-08T10:36:53.111Z,76.81
2022-12-08T10:37:53.093Z,77.28
2022-12-08T10:38:53.096Z,77.60
2022-12-08T10:39:53.075Z,77.57
2022-12-08T10:40:53.049Z,77.43
2022-12-08T10:41:53.046Z,77.65
2022-12-08T10:42:53.025Z,77.50
2022-12-08T10:43:53.021Z,77.29
2022-12-08T10:44:53.036Z,77.50
2022-12-08T10:45:53.004Z,77.64
2022-12-08T10:46:53.026Z,77.42
2022-12-08T10:47:55.469Z,77.85
2022-12-08T10:48:52.948Z,77.54
2022-12-08T10:49:52.953Z,77.38
2022-12-08T10:50:52.943Z,77.28
2022-12-08T10:51:52.904Z,77.61
2022-12-08T10:52:52.899Z,77.84
2022-12-08T10:53:52.884Z,77.89
2022-12-08T10:54:52.864Z,77.67
2022-12-08T10:55:52.853Z,77.74
2022-12-08T10:56:52.863Z,77.67
2022-12-08T10:57:52.832Z,78.08
2022-12-08T10:58:52.804Z,77.73
2022-12-08T10:59:52.824Z,78.28
2022-12-08T11:00:52.922Z,77.75
2022-12-08T11:01:52.887Z,78.25
2022-12-08T11:02:52.854Z,78.05
2022-12-08T11:03:52.753Z,77.99
2022-12-08T11:04:52.732Z,77.86
2022-12-08T11:05:52.723Z,78.00
2022-12-08T11:06:52.711Z,77.86
2022-12-08T11:07:52.781Z,77.94
2022-12-08T11:08:52.699Z,77.95
2022-12-08T11:09:52.683Z,77.85
2022-12-08T11:10:52.653Z,77.70
2022-12-08T11:11:52.643Z,77.56
2022-12-08T11:12:52.623Z,77.57
2022-12-08T11:13:52.628Z,77.57
2022-12-08T11:14:52.619Z,77.80
2022-12-08T11:15:52.600Z,77.91
2022-12-08T11:16:52.635Z,78.07
2022-12-08T11:17:57.513Z,77.99
2022-12-08T11:18:53.557Z,77.77
2022-12-08T11:19:52.562Z,77.57
2022-12-08T11:20:52.586Z,77.62
2022-12-08T11:21:52.521Z,77.66
2022-12-08T11:22:52.503Z,77.50
2022-12-08T11:23:52.491Z,77.82
2022-12-08T11:24:52.471Z,78.15
2022-12-08T11:25:52.469Z,78.10
2022-12-08T11:26:52.460Z,77.97
2022-12-08T11:27:52.441Z,77.66
2022-12-08T11:28:52.425Z,77.52
2022-12-08T11:29:52.420Z,77.41
2022-12-08T11:30:52.392Z,77.44
2022-12-08T11:31:52.428Z,77.62
2022-12-08T11:32:52.399Z,77.68
2022-12-08T11:33:52.361Z,77.41
2022-12-08T11:34:52.369Z,77.38
2022-12-08T11:35:52.341Z,77.26
2022-12-08T11:36:52.318Z,77.41
2022-12-08T11:37:52.309Z,77.55
2022-12-08T11:38:52.305Z,77.45
2022-12-08T11:39:52.288Z,77.61
2022-12-08T11:40:52.269Z,77.72
2022-12-08T11:41:52.259Z,77.47
2022-12-08T11:42:52.240Z,77.29
2022-12-08T11:43:52.231Z,77.15
2022-12-08T11:44:52.229Z,77.41
2022-12-08T11:45:52.240Z,77.41
2022-12-08T11:46:52.181Z,77.28
2022-12-08T11:47:55.775Z,77.01
2022-12-08T11:48:52.158Z,77.04
2022-12-08T11:49:52.161Z,76.85
2022-12-08T11:50:52.159Z,76.99
2022-12-08T11:51:52.130Z,76.82
2022-12-08T11:52:52.109Z,76.78
2022-12-08T11:53:52.100Z,77.05
2022-12-08T11:54:52.076Z,77.00
2022-12-08T11:55:52.069Z,77.13
2022-12-08T11:56:52.069Z,77.03
2022-12-08T11:57:52.111Z,77.33
2022-12-08T11:58:52.050Z,77.17
2022-12-08T11:59:52.029Z,76.68
2022-12-08T12:00:52.005Z,77.05
2022-12-08T12:01:52.055Z,77.05
2022-12-08T12:02:52.035Z,76.84
2022-12-08T12:03:51.967Z,77.10
2022-12-08T12:04:51.952Z,76.95
2022-12-08T12:06:55.378Z,77.08
2022-12-08T12:07:51.925Z,76.96
2022-12-08T12:08:51.930Z,77.35
2022-12-08T12:09:51.889Z,77.40
2022-12-08T12:10:51.880Z,77.49
2022-12-08T12:11:51.867Z,77.31
2022-12-08T12:12:52.856Z,77.11
2022-12-08T12:13:51.830Z,77.31
2022-12-08T12:14:51.846Z,77.33
2022-12-08T12:15:51.805Z,77.34
2022-12-08T12:16:51.817Z,76.85
2022-12-08T12:17:51.785Z,76.14
2022-12-08T12:18:51.775Z,75.88
2022-12-08T12:19:51.766Z,75.70
2022-12-08T12:20:51.784Z,75.97
2022-12-08T12:21:51.736Z,76.11
2022-12-08T12:22:51.717Z,75.94
2022-12-08T12:23:51.720Z,76.35
2022-12-08T12:24:51.701Z,76.39
2022-12-08T12:25:51.675Z,76.31
2022-12-08T12:26:51.686Z,76.25
2022-12-08T12:27:57.082Z,76.98
2022-12-08T12:28:52.637Z,76.99
2022-12-08T12:29:55.746Z,76.96
2022-12-08T12:30:51.641Z,76.74
2022-12-08T12:31:51.604Z,76.62
2022-12-08T12:32:51.604Z,76.68
2022-12-08T12:33:51.577Z,76.87
2022-12-08T12:34:51.555Z,76.57
2022-12-08T12:35:51.544Z,76.77
2022-12-08T12:36:51.537Z,76.79
2022-12-08T12:37:51.545Z,77.00
2022-12-08T12:38:51.550Z,77.04
2022-12-08T12:39:51.531Z,77.03
2022-12-08T12:40:51.488Z,76.77
2022-12-08T12:41:51.475Z,76.61
2022-12-08T12:42:51.458Z,76.99
2022-12-08T12:43:51.451Z,76.89
2022-12-08T12:44:51.444Z,76.83
2022-12-08T12:45:51.471Z,76.88
2022-12-08T12:46:51.396Z,76.82
2022-12-08T12:47:56.408Z,76.77
2022-12-08T12:48:52.385Z,76.98
2022-12-08T12:49:51.374Z,76.83
2022-12-08T12:50:51.374Z,76.83
2022-12-08T12:51:51.344Z,77.03
2022-12-08T12:52:51.321Z,77.42
2022-12-08T12:53:51.314Z,77.68